sensor_id;sensor_type;location;lat;lon;timestamp;P1;durP1;ratioP1;P2;durP2;ratioP2
74920;SDS011;63483;47.384;8.860;2022-10-16T00:00:44;3.38;;;1.65;;
74920;SDS011;63483;47.384;8.860;2022-10-16T00:03:09;2.97;;;1.52;;
74920;SDS011;63483;47.384;8.860;2022-10-16T00:05:40;3.30;;;1.17;;
74920;SDS011;63483;47.384;8.860;2022-10-16T00:08:07;5.88;;;1.10;;
74920;SDS011;63483;47.384;8.860;2022-10-16T00:10:34;2.13;;;1.42;;
74920;SDS011;63483;47.384;8.860;2022-10-16T00:12:59;2.65;;;1.30;;
74920;SDS011;63483;47.384;8.860;2022-10-16T00:15:25;1.90;;;1.43;;
74920;SDS011;63483;47.384;8.860;2022-10-16T00:17:50;4.53;;;1.00;;
74920;SDS011;63483;47.384;8.860;2022-10-16T00:20:15;5.50;;;1.10;;
74920;SDS011;63483;47.384;8.860;2022-10-16T00:22:40;2.03;;;0.63;;
74920;SDS011;63483;47.384;8.860;2022-10-16T00:25:06;1.50;;;0.80;;
74920;SDS011;63483;47.384;8.860;2022-10-16T00:27:32;2.35;;;1.40;;
74920;SDS011;63483;47.384;8.860;2022-10-16T00:29:58;3.53;;;1.48;;
74920;SDS011;63483;47.384;8.860;2022-10-16T00:32:24;2.03;;;0.87;;
74920;SDS011;63483;47.384;8.860;2022-10-16T00:34:49;3.80;;;1.50;;
74920;SDS011;63483;47.384;8.860;2022-10-16T00:37:14;2.47;;;0.93;;
74920;SDS011;63483;47.384;8.860;2022-10-16T00:39:40;3.00;;;1.20;;
74920;SDS011;63483;47.384;8.860;2022-10-16T00:42:05;3.08;;;1.02;;
74920;SDS011;63483;47.384;8.860;2022-10-16T00:48:02;3.43;;;0.80;;
74920;SDS011;63483;47.384;8.860;2022-10-16T00:50:18;2.88;;;1.48;;
74920;SDS011;63483;47.384;8.860;2022-10-16T00:52:51;2.33;;;0.50;;
74920;SDS011;63483;47.384;8.860;2022-10-16T00:55:17;3.72;;;0.93;;
74920;SDS011;63483;47.384;8.860;2022-10-16T00:57:44;3.50;;;1.70;;
74920;SDS011;63483;47.384;8.860;2022-10-16T01:00:11;2.50;;;0.77;;
74920;SDS011;63483;47.384;8.860;2022-10-16T01:02:39;3.45;;;1.08;;
74920;SDS011;63483;47.384;8.860;2022-10-16T01:05:04;1.73;;;0.87;;
74920;SDS011;63483;47.384;8.860;2022-10-16T01:07:40;2.17;;;0.98;;
74920;SDS011;63483;47.384;8.860;2022-10-16T01:10:30;3.50;;;0.90;;
74920;SDS011;63483;47.384;8.860;2022-10-16T01:13:11;5.68;;;1.20;;
74920;SDS011;63483;47.384;8.860;2022-10-16T01:15:46;2.40;;;1.03;;
74920;SDS011;63483;47.384;8.860;2022-10-16T01:21:12;3.47;;;0.95;;
74920;SDS011;63483;47.384;8.860;2022-10-16T01:29:30;1.87;;;0.60;;
74920;SDS011;63483;47.384;8.860;2022-10-16T01:32:05;2.95;;;0.88;;
74920;SDS011;63483;47.384;8.860;2022-10-16T01:34:47;3.67;;;1.02;;
74920;SDS011;63483;47.384;8.860;2022-10-16T01:37:20;2.05;;;0.68;;
74920;SDS011;63483;47.384;8.860;2022-10-16T01:39:53;4.45;;;0.80;;
74920;SDS011;63483;47.384;8.860;2022-10-16T01:42:23;1.23;;;0.80;;
74920;SDS011;63483;47.384;8.860;2022-10-16T01:44:55;4.43;;;0.80;;
74920;SDS011;63483;47.384;8.860;2022-10-16T01:47:23;2.25;;;0.63;;
74920;SDS011;63483;47.384;8.860;2022-10-16T01:49:51;4.13;;;1.00;;
74920;SDS011;63483;47.384;8.860;2022-10-16T01:52:20;2.53;;;0.60;;
74920;SDS011;63483;47.384;8.860;2022-10-16T01:54:50;3.37;;;0.90;;
74920;SDS011;63483;47.384;8.860;2022-10-16T01:57:19;2.50;;;0.63;;
74920;SDS011;63483;47.384;8.860;2022-10-16T01:59:48;3.08;;;0.90;;
74920;SDS011;63483;47.384;8.860;2022-10-16T02:02:17;1.70;;;0.68;;
74920;SDS011;63483;47.384;8.860;2022-10-16T02:07:32;7.00;;;0.73;;
74920;SDS011;63483;47.384;8.860;2022-10-16T02:09:59;2.85;;;0.50;;
74920;SDS011;63483;47.384;8.860;2022-10-16T02:12:26;3.43;;;1.00;;
74920;SDS011;63483;47.384;8.860;2022-10-16T02:14:55;2.65;;;1.17;;
74920;SDS011;63483;47.384;8.860;2022-10-16T02:17:20;1.33;;;0.80;;
74920;SDS011;63483;47.384;8.860;2022-10-16T02:19:47;4.43;;;1.43;;
74920;SDS011;63483;47.384;8.860;2022-10-16T02:22:15;3.15;;;0.77;;
74920;SDS011;63483;47.384;8.860;2022-10-16T02:25:03;4.23;;;1.20;;
74920;SDS011;63483;47.384;8.860;2022-10-16T02:30:09;5.95;;;0.77;;
74920;SDS011;63483;47.384;8.860;2022-10-16T02:32:39;2.03;;;0.90;;
74920;SDS011;63483;47.384;8.860;2022-10-16T02:35:09;2.53;;;1.30;;
74920;SDS011;63483;47.384;8.860;2022-10-16T02:37:35;4.23;;;0.90;;
74920;SDS011;63483;47.384;8.860;2022-10-16T02:40:03;1.65;;;0.82;;
74920;SDS011;63483;47.384;8.860;2022-10-16T02:42:34;2.92;;;0.85;;
74920;SDS011;63483;47.384;8.860;2022-10-16T02:45:01;2.25;;;1.00;;
74920;SDS011;63483;47.384;8.860;2022-10-16T02:47:28;4.85;;;1.38;;
74920;SDS011;63483;47.384;8.860;2022-10-16T02:49:54;2.53;;;0.90;;
74920;SDS011;63483;47.384;8.860;2022-10-16T02:52:19;3.00;;;1.13;;
74920;SDS011;63483;47.384;8.860;2022-10-16T02:54:44;3.13;;;1.13;;
74920;SDS011;63483;47.384;8.860;2022-10-16T02:57:10;3.37;;;1.20;;
74920;SDS011;63483;47.384;8.860;2022-10-16T02:59:35;3.20;;;0.97;;
74920;SDS011;63483;47.384;8.860;2022-10-16T03:02:00;4.50;;;1.17;;
74920;SDS011;63483;47.384;8.860;2022-10-16T03:04:26;2.97;;;1.43;;
74920;SDS011;63483;47.384;8.860;2022-10-16T03:06:51;2.60;;;1.13;;
74920;SDS011;63483;47.384;8.860;2022-10-16T03:09:16;1.67;;;0.73;;
74920;SDS011;63483;47.384;8.860;2022-10-16T03:11:42;2.87;;;0.67;;
74920;SDS011;63483;47.384;8.860;2022-10-16T03:14:07;1.40;;;0.93;;
74920;SDS011;63483;47.384;8.860;2022-10-16T03:16:32;1.30;;;0.60;;
74920;SDS011;63483;47.384;8.860;2022-10-16T03:18:58;1.30;;;0.70;;
74920;SDS011;63483;47.384;8.860;2022-10-16T03:21:23;4.60;;;1.00;;
74920;SDS011;63483;47.384;8.860;2022-10-16T03:23:48;2.03;;;1.00;;
74920;SDS011;63483;47.384;8.860;2022-10-16T03:26:14;1.60;;;1.10;;
74920;SDS011;63483;47.384;8.860;2022-10-16T03:28:39;1.60;;;1.00;;
74920;SDS011;63483;47.384;8.860;2022-10-16T03:31:04;1.73;;;1.00;;
74920;SDS011;63483;47.384;8.860;2022-10-16T03:33:30;2.50;;;0.83;;
74920;SDS011;63483;47.384;8.860;2022-10-16T03:35:55;2.50;;;1.03;;
74920;SDS011;63483;47.384;8.860;2022-10-16T03:38:20;2.20;;;1.15;;
74920;SDS011;63483;47.384;8.860;2022-10-16T03:40:46;2.87;;;0.83;;
74920;SDS011;63483;47.384;8.860;2022-10-16T03:43:12;2.03;;;1.05;;
74920;SDS011;63483;47.384;8.860;2022-10-16T03:45:37;2.40;;;1.00;;
74920;SDS011;63483;47.384;8.860;2022-10-16T03:48:02;4.07;;;0.80;;
74920;SDS011;63483;47.384;8.860;2022-10-16T03:50:28;2.70;;;0.90;;
74920;SDS011;63483;47.384;8.860;2022-10-16T03:52:54;4.85;;;1.10;;
74920;SDS011;63483;47.384;8.860;2022-10-16T03:55:19;2.63;;;0.80;;
74920;SDS011;63483;47.384;8.860;2022-10-16T03:57:45;1.63;;;1.17;;
74920;SDS011;63483;47.384;8.860;2022-10-16T04:00:10;1.53;;;0.80;;
74920;SDS011;63483;47.384;8.860;2022-10-16T04:02:36;5.05;;;1.08;;
74920;SDS011;63483;47.384;8.860;2022-10-16T04:05:02;3.87;;;1.10;;
74920;SDS011;63483;47.384;8.860;2022-10-16T04:07:28;3.65;;;1.10;;
74920;SDS011;63483;47.384;8.860;2022-10-16T04:09:53;4.33;;;1.13;;
74920;SDS011;63483;47.384;8.860;2022-10-16T04:12:19;3.55;;;1.00;;
74920;SDS011;63483;47.384;8.860;2022-10-16T04:14:44;2.00;;;0.67;;
74920;SDS011;63483;47.384;8.860;2022-10-16T04:17:09;2.27;;;1.17;;
74920;SDS011;63483;47.384;8.860;2022-10-16T04:19:35;1.87;;;1.30;;
74920;SDS011;63483;47.384;8.860;2022-10-16T04:22:00;1.77;;;1.67;;
74920;SDS011;63483;47.384;8.860;2022-10-16T04:24:25;3.63;;;1.23;;
74920;SDS011;63483;47.384;8.860;2022-10-16T04:26:51;1.50;;;1.00;;
74920;SDS011;63483;47.384;8.860;2022-10-16T04:29:16;2.47;;;1.20;;
74920;SDS011;63483;47.384;8.860;2022-10-16T04:31:41;2.33;;;1.10;;
74920;SDS011;63483;47.384;8.860;2022-10-16T04:34:07;3.05;;;0.85;;
74920;SDS011;63483;47.384;8.860;2022-10-16T04:36:32;1.67;;;1.27;;
74920;SDS011;63483;47.384;8.860;2022-10-16T04:38:57;2.70;;;1.40;;
74920;SDS011;63483;47.384;8.860;2022-10-16T04:41:23;2.53;;;1.20;;
74920;SDS011;63483;47.384;8.860;2022-10-16T04:43:48;4.90;;;1.13;;
74920;SDS011;63483;47.384;8.860;2022-10-16T04:46:13;1.77;;;1.00;;
74920;SDS011;63483;47.384;8.860;2022-10-16T04:48:39;3.47;;;1.43;;
74920;SDS011;63483;47.384;8.860;2022-10-16T04:51:04;3.10;;;1.47;;
74920;SDS011;63483;47.384;8.860;2022-10-16T04:53:29;4.63;;;0.70;;
74920;SDS011;63483;47.384;8.860;2022-10-16T04:55:55;4.20;;;2.10;;
74920;SDS011;63483;47.384;8.860;2022-10-16T04:58:21;3.40;;;1.10;;
74920;SDS011;63483;47.384;8.860;2022-10-16T05:00:47;1.90;;;0.80;;
74920;SDS011;63483;47.384;8.860;2022-10-16T05:03:12;1.47;;;1.17;;
74920;SDS011;63483;47.384;8.860;2022-10-16T05:05:41;2.75;;;1.27;;
74920;SDS011;63483;47.384;8.860;2022-10-16T05:08:08;1.53;;;1.00;;
74920;SDS011;63483;47.384;8.860;2022-10-16T05:10:34;2.25;;;0.85;;
74920;SDS011;63483;47.384;8.860;2022-10-16T05:12:59;4.00;;;1.83;;
74920;SDS011;63483;47.384;8.860;2022-10-16T05:15:24;3.90;;;1.40;;
74920;SDS011;63483;47.384;8.860;2022-10-16T05:17:52;5.10;;;0.97;;
74920;SDS011;63483;47.384;8.860;2022-10-16T05:20:18;3.38;;;1.15;;
74920;SDS011;63483;47.384;8.860;2022-10-16T05:22:44;2.20;;;1.07;;
74920;SDS011;63483;47.384;8.860;2022-10-16T05:25:09;3.83;;;1.70;;
74920;SDS011;63483;47.384;8.860;2022-10-16T05:27:34;3.03;;;1.00;;
74920;SDS011;63483;47.384;8.860;2022-10-16T05:29:59;2.58;;;1.23;;
74920;SDS011;63483;47.384;8.860;2022-10-16T05:32:25;4.63;;;1.83;;
74920;SDS011;63483;47.384;8.860;2022-10-16T05:34:50;3.77;;;1.50;;
74920;SDS011;63483;47.384;8.860;2022-10-16T05:37:16;5.30;;;1.67;;
74920;SDS011;63483;47.384;8.860;2022-10-16T05:39:41;3.27;;;1.50;;
74920;SDS011;63483;47.384;8.860;2022-10-16T05:42:06;4.07;;;2.17;;
74920;SDS011;63483;47.384;8.860;2022-10-16T05:44:32;4.63;;;1.33;;
74920;SDS011;63483;47.384;8.860;2022-10-16T05:46:57;2.63;;;1.53;;
74920;SDS011;63483;47.384;8.860;2022-10-16T05:49:23;3.97;;;1.10;;
74920;SDS011;63483;47.384;8.860;2022-10-16T05:51:48;2.93;;;1.30;;
74920;SDS011;63483;47.384;8.860;2022-10-16T05:54:13;3.60;;;1.17;;
74920;SDS011;63483;47.384;8.860;2022-10-16T05:56:39;1.58;;;0.90;;
74920;SDS011;63483;47.384;8.860;2022-10-16T05:59:04;2.10;;;1.07;;
74920;SDS011;63483;47.384;8.860;2022-10-16T06:01:30;2.03;;;1.43;;
74920;SDS011;63483;47.384;8.860;2022-10-16T06:03:56;2.90;;;1.50;;
74920;SDS011;63483;47.384;8.860;2022-10-16T06:06:23;2.90;;;1.70;;
74920;SDS011;63483;47.384;8.860;2022-10-16T06:08:51;2.05;;;1.08;;
74920;SDS011;63483;47.384;8.860;2022-10-16T06:11:18;2.13;;;1.38;;
74920;SDS011;63483;47.384;8.860;2022-10-16T06:13:51;3.42;;;1.73;;
74920;SDS011;63483;47.384;8.860;2022-10-16T06:16:17;4.50;;;1.33;;
74920;SDS011;63483;47.384;8.860;2022-10-16T06:18:44;2.50;;;1.37;;
74920;SDS011;63483;47.384;8.860;2022-10-16T06:21:16;4.07;;;1.30;;
74920;SDS011;63483;47.384;8.860;2022-10-16T06:23:43;5.68;;;1.67;;
74920;SDS011;63483;47.384;8.860;2022-10-16T06:26:11;4.22;;;1.00;;
74920;SDS011;63483;47.384;8.860;2022-10-16T06:28:38;6.20;;;1.23;;
74920;SDS011;63483;47.384;8.860;2022-10-16T06:31:04;2.88;;;1.15;;
74920;SDS011;63483;47.384;8.860;2022-10-16T06:33:30;3.58;;;1.60;;
74920;SDS011;63483;47.384;8.860;2022-10-16T06:36:03;3.60;;;2.80;;
74920;SDS011;63483;47.384;8.860;2022-10-16T06:38:39;7.78;;;3.90;;
74920;SDS011;63483;47.384;8.860;2022-10-16T06:41:05;6.63;;;3.90;;
74920;SDS011;63483;47.384;8.860;2022-10-16T06:43:31;5.72;;;4.13;;
74920;SDS011;63483;47.384;8.860;2022-10-16T06:45:57;6.63;;;4.70;;
74920;SDS011;63483;47.384;8.860;2022-10-16T06:48:24;5.28;;;4.00;;
74920;SDS011;63483;47.384;8.860;2022-10-16T06:53:26;6.05;;;4.10;;
74920;SDS011;63483;47.384;8.860;2022-10-16T06:55:52;5.30;;;3.93;;
74920;SDS011;63483;47.384;8.860;2022-10-16T06:58:18;5.22;;;3.67;;
74920;SDS011;63483;47.384;8.860;2022-10-16T07:00:43;6.83;;;4.57;;
74920;SDS011;63483;47.384;8.860;2022-10-16T07:03:08;8.77;;;4.63;;
74920;SDS011;63483;47.384;8.860;2022-10-16T07:05:37;5.87;;;3.30;;
74920;SDS011;63483;47.384;8.860;2022-10-16T07:08:03;9.35;;;4.78;;
74920;SDS011;63483;47.384;8.860;2022-10-16T07:10:30;9.95;;;4.78;;
74920;SDS011;63483;47.384;8.860;2022-10-16T07:12:56;6.13;;;3.30;;
74920;SDS011;63483;47.384;8.860;2022-10-16T07:15:21;5.70;;;3.20;;
74920;SDS011;63483;47.384;8.860;2022-10-16T07:17:46;5.20;;;3.80;;
74920;SDS011;63483;47.384;8.860;2022-10-16T07:20:12;6.20;;;4.23;;
74920;SDS011;63483;47.384;8.860;2022-10-16T07:22:37;8.77;;;4.33;;
74920;SDS011;63483;47.384;8.860;2022-10-16T07:25:03;7.43;;;4.53;;
74920;SDS011;63483;47.384;8.860;2022-10-16T07:27:28;4.50;;;3.53;;
74920;SDS011;63483;47.384;8.860;2022-10-16T07:29:54;6.67;;;3.20;;
74920;SDS011;63483;47.384;8.860;2022-10-16T07:32:19;6.50;;;3.50;;
74920;SDS011;63483;47.384;8.860;2022-10-16T07:34:44;5.67;;;3.57;;
74920;SDS011;63483;47.384;8.860;2022-10-16T07:37:10;5.97;;;3.03;;
74920;SDS011;63483;47.384;8.860;2022-10-16T07:39:36;4.33;;;2.53;;
74920;SDS011;63483;47.384;8.860;2022-10-16T07:42:01;6.23;;;3.87;;
74920;SDS011;63483;47.384;8.860;2022-10-16T07:44:27;7.15;;;3.08;;
74920;SDS011;63483;47.384;8.860;2022-10-16T07:46:52;5.40;;;3.23;;
74920;SDS011;63483;47.384;8.860;2022-10-16T07:49:17;6.97;;;3.53;;
74920;SDS011;63483;47.384;8.860;2022-10-16T07:51:43;5.27;;;3.33;;
74920;SDS011;63483;47.384;8.860;2022-10-16T07:54:09;7.00;;;3.97;;
74920;SDS011;63483;47.384;8.860;2022-10-16T07:56:35;8.13;;;4.30;;
74920;SDS011;63483;47.384;8.860;2022-10-16T07:59:00;11.63;;;5.50;;
74920;SDS011;63483;47.384;8.860;2022-10-16T08:01:26;16.40;;;11.93;;
74920;SDS011;63483;47.384;8.860;2022-10-16T08:03:51;14.25;;;11.35;;
74920;SDS011;63483;47.384;8.860;2022-10-16T08:06:18;13.57;;;9.57;;
74920;SDS011;63483;47.384;8.860;2022-10-16T08:08:44;9.18;;;5.60;;
74920;SDS011;63483;47.384;8.860;2022-10-16T08:11:09;11.07;;;6.33;;
74920;SDS011;63483;47.384;8.860;2022-10-16T08:13:35;19.02;;;8.10;;
74920;SDS011;63483;47.384;8.860;2022-10-16T08:16:01;23.20;;;14.30;;
74920;SDS011;63483;47.384;8.860;2022-10-16T08:18:32;16.23;;;10.50;;
74920;SDS011;63483;47.384;8.860;2022-10-16T08:20:59;10.15;;;6.75;;
74920;SDS011;63483;47.384;8.860;2022-10-16T08:23:25;15.20;;;11.02;;
74920;SDS011;63483;47.384;8.860;2022-10-16T08:25:52;8.93;;;6.60;;
74920;SDS011;63483;47.384;8.860;2022-10-16T08:28:18;12.15;;;7.20;;
74920;SDS011;63483;47.384;8.860;2022-10-16T08:30:44;13.40;;;8.70;;
74920;SDS011;63483;47.384;8.860;2022-10-16T08:33:09;13.90;;;8.77;;
74920;SDS011;63483;47.384;8.860;2022-10-16T08:35:35;11.13;;;5.90;;
74920;SDS011;63483;47.384;8.860;2022-10-16T08:38:02;7.43;;;6.00;;
74920;SDS011;63483;47.384;8.860;2022-10-16T08:40:29;7.72;;;5.53;;
74920;SDS011;63483;47.384;8.860;2022-10-16T08:43:06;7.97;;;4.78;;
74920;SDS011;63483;47.384;8.860;2022-10-16T08:48:35;10.13;;;7.18;;
74920;SDS011;63483;47.384;8.860;2022-10-16T08:51:07;8.13;;;6.15;;
74920;SDS011;63483;47.384;8.860;2022-10-16T08:53:39;9.02;;;6.40;;
74920;SDS011;63483;47.384;8.860;2022-10-16T08:56:07;15.98;;;8.45;;
74920;SDS011;63483;47.384;8.860;2022-10-16T08:58:33;13.67;;;10.57;;
74920;SDS011;63483;47.384;8.860;2022-10-16T09:01:00;11.77;;;8.87;;
74920;SDS011;63483;47.384;8.860;2022-10-16T09:09:04;12.98;;;9.50;;
74920;SDS011;63483;47.384;8.860;2022-10-16T09:16:43;12.50;;;9.50;;
74920;SDS011;63483;47.384;8.860;2022-10-16T09:19:34;9.13;;;7.88;;
74920;SDS011;63483;47.384;8.860;2022-10-16T09:22:16;6.57;;;5.00;;
74920;SDS011;63483;47.384;8.860;2022-10-16T09:24:43;6.60;;;4.80;;
74920;SDS011;63483;47.384;8.860;2022-10-16T09:27:10;6.80;;;4.90;;
74920;SDS011;63483;47.384;8.860;2022-10-16T09:29:36;6.30;;;4.28;;
74920;SDS011;63483;47.384;8.860;2022-10-16T09:32:07;4.33;;;3.60;;
74920;SDS011;63483;47.384;8.860;2022-10-16T09:34:47;5.25;;;4.05;;
74920;SDS011;63483;47.384;8.860;2022-10-16T09:37:17;2.87;;;2.37;;
74920;SDS011;63483;47.384;8.860;2022-10-16T09:39:51;4.03;;;2.53;;
74920;SDS011;63483;47.384;8.860;2022-10-16T09:42:25;3.45;;;2.38;;
74920;SDS011;63483;47.384;8.860;2022-10-16T09:44:55;3.35;;;2.30;;
74920;SDS011;63483;47.384;8.860;2022-10-16T09:47:23;4.05;;;2.10;;
74920;SDS011;63483;47.384;8.860;2022-10-16T09:49:58;2.63;;;1.80;;
74920;SDS011;63483;47.384;8.860;2022-10-16T09:52:31;3.05;;;1.90;;
74920;SDS011;63483;47.384;8.860;2022-10-16T09:55:01;7.13;;;2.00;;
74920;SDS011;63483;47.384;8.860;2022-10-16T09:57:47;3.05;;;1.75;;
74920;SDS011;63483;47.384;8.860;2022-10-16T10:00:17;3.03;;;1.60;;
74920;SDS011;63483;47.384;8.860;2022-10-16T10:02:44;3.93;;;1.20;;
74920;SDS011;63483;47.384;8.860;2022-10-16T10:05:28;1.85;;;1.30;;
74920;SDS011;63483;47.384;8.860;2022-10-16T10:07:58;2.70;;;1.67;;
74920;SDS011;63483;47.384;8.860;2022-10-16T10:10:26;2.22;;;1.52;;
74920;SDS011;63483;47.384;8.860;2022-10-16T10:12:54;2.50;;;1.50;;
74920;SDS011;63483;47.384;8.860;2022-10-16T10:15:20;3.27;;;1.10;;
74920;SDS011;63483;47.384;8.860;2022-10-16T10:17:50;2.30;;;1.23;;
74920;SDS011;63483;47.384;8.860;2022-10-16T10:20:26;3.15;;;1.45;;
74920;SDS011;63483;47.384;8.860;2022-10-16T10:22:54;1.48;;;1.25;;
74920;SDS011;63483;47.384;8.860;2022-10-16T10:25:23;2.22;;;0.93;;
74920;SDS011;63483;47.384;8.860;2022-10-16T10:38:48;3.85;;;1.10;;
74920;SDS011;63483;47.384;8.860;2022-10-16T10:51:13;1.48;;;1.02;;
74920;SDS011;63483;47.384;8.860;2022-10-16T10:53:31;1.88;;;1.10;;
74920;SDS011;63483;47.384;8.860;2022-10-16T11:01:14;1.80;;;1.30;;
74920;SDS011;63483;47.384;8.860;2022-10-16T11:06:59;1.80;;;1.17;;
74920;SDS011;63483;47.384;8.860;2022-10-16T11:09:33;4.20;;;1.17;;
74920;SDS011;63483;47.384;8.860;2022-10-16T11:14:46;4.50;;;1.50;;
74920;SDS011;63483;47.384;8.860;2022-10-16T11:17:19;3.08;;;1.00;;
74920;SDS011;63483;47.384;8.860;2022-10-16T11:22:45;1.40;;;0.93;;
74920;SDS011;63483;47.384;8.860;2022-10-16T11:25:16;1.40;;;0.90;;
74920;SDS011;63483;47.384;8.860;2022-10-16T11:28:01;1.90;;;1.35;;
74920;SDS011;63483;47.384;8.860;2022-10-16T11:30:32;2.88;;;1.17;;
74920;SDS011;63483;47.384;8.860;2022-10-16T11:33:13;1.70;;;1.10;;
74920;SDS011;63483;47.384;8.860;2022-10-16T11:35:53;1.80;;;1.30;;
74920;SDS011;63483;47.384;8.860;2022-10-16T11:41:00;2.08;;;0.98;;
74920;SDS011;63483;47.384;8.860;2022-10-16T11:43:37;2.05;;;1.20;;
74920;SDS011;63483;47.384;8.860;2022-10-16T11:46:15;3.80;;;1.50;;
74920;SDS011;63483;47.384;8.860;2022-10-16T11:48:48;5.80;;;1.80;;
74920;SDS011;63483;47.384;8.860;2022-10-16T11:51:40;1.77;;;0.93;;
74920;SDS011;63483;47.384;8.860;2022-10-16T11:56:36;1.90;;;0.90;;
74920;SDS011;63483;47.384;8.860;2022-10-16T11:59:28;1.65;;;1.30;;
74920;SDS011;63483;47.384;8.860;2022-10-16T12:04:48;3.22;;;0.90;;
74920;SDS011;63483;47.384;8.860;2022-10-16T12:07:22;3.28;;;1.52;;
74920;SDS011;63483;47.384;8.860;2022-10-16T12:09:56;4.32;;;1.58;;
74920;SDS011;63483;47.384;8.860;2022-10-16T12:17:48;2.22;;;1.00;;
74920;SDS011;63483;47.384;8.860;2022-10-16T12:22:53;1.40;;;0.70;;
74920;SDS011;63483;47.384;8.860;2022-10-16T12:25:21;2.28;;;1.48;;
74920;SDS011;63483;47.384;8.860;2022-10-16T12:27:57;1.63;;;0.82;;
74920;SDS011;63483;47.384;8.860;2022-10-16T12:30:25;1.50;;;1.08;;
74920;SDS011;63483;47.384;8.860;2022-10-16T12:32:56;1.50;;;1.07;;
74920;SDS011;63483;47.384;8.860;2022-10-16T12:35:25;2.65;;;1.20;;
74920;SDS011;63483;47.384;8.860;2022-10-16T12:38:03;1.52;;;1.30;;
74920;SDS011;63483;47.384;8.860;2022-10-16T12:40:32;1.80;;;1.58;;
74920;SDS011;63483;47.384;8.860;2022-10-16T12:43:10;2.92;;;1.13;;
74920;SDS011;63483;47.384;8.860;2022-10-16T12:45:37;2.50;;;1.30;;
74920;SDS011;63483;47.384;8.860;2022-10-16T12:48:04;2.40;;;1.27;;
74920;SDS011;63483;47.384;8.860;2022-10-16T12:50:43;2.57;;;1.53;;
74920;SDS011;63483;47.384;8.860;2022-10-16T12:53:25;3.38;;;1.75;;
74920;SDS011;63483;47.384;8.860;2022-10-16T12:56:14;3.33;;;1.23;;
74920;SDS011;63483;47.384;8.860;2022-10-16T13:01:49;2.85;;;1.35;;
74920;SDS011;63483;47.384;8.860;2022-10-16T13:04:47;2.07;;;1.53;;
74920;SDS011;63483;47.384;8.860;2022-10-16T13:15:31;2.50;;;1.38;;
74920;SDS011;63483;47.384;8.860;2022-10-16T13:18:39;2.60;;;1.27;;
74920;SDS011;63483;47.384;8.860;2022-10-16T13:29:13;1.60;;;1.08;;
74920;SDS011;63483;47.384;8.860;2022-10-16T13:31:39;2.67;;;1.20;;
74920;SDS011;63483;47.384;8.860;2022-10-16T13:34:05;1.52;;;0.80;;
74920;SDS011;63483;47.384;8.860;2022-10-16T13:36:42;1.92;;;0.65;;
74920;SDS011;63483;47.384;8.860;2022-10-16T13:39:20;2.40;;;1.07;;
74920;SDS011;63483;47.384;8.860;2022-10-16T13:44:38;2.53;;;0.80;;
74920;SDS011;63483;47.384;8.860;2022-10-16T13:47:15;2.67;;;1.05;;
74920;SDS011;63483;47.384;8.860;2022-10-16T13:49:42;1.75;;;0.57;;
74920;SDS011;63483;47.384;8.860;2022-10-16T13:52:18;1.60;;;0.80;;
74920;SDS011;63483;47.384;8.860;2022-10-16T13:54:44;1.30;;;0.73;;
74920;SDS011;63483;47.384;8.860;2022-10-16T13:57:14;1.60;;;0.80;;
74920;SDS011;63483;47.384;8.860;2022-10-16T13:59:40;1.60;;;1.30;;
74920;SDS011;63483;47.384;8.860;2022-10-16T14:04:45;1.80;;;1.55;;
74920;SDS011;63483;47.384;8.860;2022-10-16T14:07:14;3.10;;;1.17;;
74920;SDS011;63483;47.384;8.860;2022-10-16T14:09:48;3.10;;;1.20;;
74920;SDS011;63483;47.384;8.860;2022-10-16T14:12:15;2.63;;;1.20;;
74920;SDS011;63483;47.384;8.860;2022-10-16T14:14:45;2.53;;;1.60;;
74920;SDS011;63483;47.384;8.860;2022-10-16T14:19:45;4.97;;;1.77;;
74920;SDS011;63483;47.384;8.860;2022-10-16T14:22:24;3.03;;;1.50;;
74920;SDS011;63483;47.384;8.860;2022-10-16T14:24:54;4.68;;;1.60;;
74920;SDS011;63483;47.384;8.860;2022-10-16T14:27:28;3.07;;;1.50;;
74920;SDS011;63483;47.384;8.860;2022-10-16T14:32:32;3.47;;;1.88;;
74920;SDS011;63483;47.384;8.860;2022-10-16T14:34:58;2.17;;;1.73;;
74920;SDS011;63483;47.384;8.860;2022-10-16T14:37:27;3.07;;;1.27;;
74920;SDS011;63483;47.384;8.860;2022-10-16T14:39:54;2.22;;;1.23;;
74920;SDS011;63483;47.384;8.860;2022-10-16T14:42:21;3.03;;;1.45;;
74920;SDS011;63483;47.384;8.860;2022-10-16T14:44:51;2.20;;;1.10;;
74920;SDS011;63483;47.384;8.860;2022-10-16T14:47:19;3.47;;;1.60;;
74920;SDS011;63483;47.384;8.860;2022-10-16T14:49:49;3.20;;;1.50;;
74920;SDS011;63483;47.384;8.860;2022-10-16T14:52:14;3.13;;;1.83;;
74920;SDS011;63483;47.384;8.860;2022-10-16T14:54:40;3.90;;;1.40;;
74920;SDS011;63483;47.384;8.860;2022-10-16T14:57:05;2.78;;;1.42;;
74920;SDS011;63483;47.384;8.860;2022-10-16T14:59:42;2.05;;;1.85;;
74920;SDS011;63483;47.384;8.860;2022-10-16T15:04:45;3.92;;;1.55;;
74920;SDS011;63483;47.384;8.860;2022-10-16T15:07:11;2.28;;;1.40;;
74920;SDS011;63483;47.384;8.860;2022-10-16T15:09:36;2.80;;;1.47;;
74920;SDS011;63483;47.384;8.860;2022-10-16T15:12:01;2.53;;;1.53;;
74920;SDS011;63483;47.384;8.860;2022-10-16T15:14:27;3.13;;;1.37;;
74920;SDS011;63483;47.384;8.860;2022-10-16T15:16:52;2.70;;;1.40;;
74920;SDS011;63483;47.384;8.860;2022-10-16T15:19:18;1.93;;;1.00;;
74920;SDS011;63483;47.384;8.860;2022-10-16T15:21:43;3.10;;;1.23;;
74920;SDS011;63483;47.384;8.860;2022-10-16T15:24:09;3.70;;;1.10;;
74920;SDS011;63483;47.384;8.860;2022-10-16T15:26:37;2.80;;;0.68;;
74920;SDS011;63483;47.384;8.860;2022-10-16T15:29:03;1.60;;;0.70;;
74920;SDS011;63483;47.384;8.860;2022-10-16T15:31:29;2.00;;;1.20;;
74920;SDS011;63483;47.384;8.860;2022-10-16T15:33:54;1.97;;;1.43;;
74920;SDS011;63483;47.384;8.860;2022-10-16T15:36:29;1.77;;;1.38;;
74920;SDS011;63483;47.384;8.860;2022-10-16T15:39:23;1.92;;;1.55;;
74920;SDS011;63483;47.384;8.860;2022-10-16T15:41:47;2.65;;;1.35;;
74920;SDS011;63483;47.384;8.860;2022-10-16T15:44:18;1.60;;;0.90;;
74920;SDS011;63483;47.384;8.860;2022-10-16T15:46:44;4.47;;;1.25;;
74920;SDS011;63483;47.384;8.860;2022-10-16T15:49:09;3.97;;;0.80;;
74920;SDS011;63483;47.384;8.860;2022-10-16T15:51:37;3.47;;;1.15;;
74920;SDS011;63483;47.384;8.860;2022-10-16T15:54:04;3.83;;;1.45;;
74920;SDS011;63483;47.384;8.860;2022-10-16T15:56:29;4.43;;;1.00;;
74920;SDS011;63483;47.384;8.860;2022-10-16T15:58:58;3.90;;;1.55;;
74920;SDS011;63483;47.384;8.860;2022-10-16T16:01:23;4.93;;;2.03;;
74920;SDS011;63483;47.384;8.860;2022-10-16T16:03:52;5.40;;;2.53;;
74920;SDS011;63483;47.384;8.860;2022-10-16T16:06:18;4.03;;;2.15;;
74920;SDS011;63483;47.384;8.860;2022-10-16T16:08:43;4.50;;;1.70;;
74920;SDS011;63483;47.384;8.860;2022-10-16T16:11:10;7.53;;;2.67;;
74920;SDS011;63483;47.384;8.860;2022-10-16T16:13:37;3.13;;;1.92;;
74920;SDS011;63483;47.384;8.860;2022-10-16T16:16:08;6.13;;;2.20;;
74920;SDS011;63483;47.384;8.860;2022-10-16T16:18:34;5.03;;;1.95;;
74920;SDS011;63483;47.384;8.860;2022-10-16T16:21:00;6.10;;;1.95;;
74920;SDS011;63483;47.384;8.860;2022-10-16T16:23:26;2.80;;;1.30;;
74920;SDS011;63483;47.384;8.860;2022-10-16T16:26:09;5.43;;;1.33;;
74920;SDS011;63483;47.384;8.860;2022-10-16T16:28:38;4.40;;;1.20;;
74920;SDS011;63483;47.384;8.860;2022-10-16T16:31:04;3.83;;;1.67;;
74920;SDS011;63483;47.384;8.860;2022-10-16T16:33:29;4.38;;;1.73;;
74920;SDS011;63483;47.384;8.860;2022-10-16T16:36:00;4.50;;;1.75;;
74920;SDS011;63483;47.384;8.860;2022-10-16T16:38:27;4.00;;;2.50;;
74920;SDS011;63483;47.384;8.860;2022-10-16T16:40:53;5.13;;;2.30;;
74920;SDS011;63483;47.384;8.860;2022-10-16T16:43:22;4.18;;;1.67;;
74920;SDS011;63483;47.384;8.860;2022-10-16T16:45:48;3.85;;;2.05;;
74920;SDS011;63483;47.384;8.860;2022-10-16T16:48:13;2.13;;;1.37;;
74920;SDS011;63483;47.384;8.860;2022-10-16T16:50:39;3.13;;;2.30;;